Terminal Aerodrome Forecast
Issued by NWS

Home | Current Version | Previous Version | Text Only | Print | Product List | Glossary On
Versions: 1 2 3 4 5 6 7 8 9 10 11 12 13 14 15 16 17 18 19 20 21 22 23 24 25 26 27 28 29 30
000
FTUS45 KLKN 250652 AAA
TAFELY
TAF AMD
KELY 250652Z 2507/2606 29008KT P6SM VCSH OVC050
      TEMPO 2507/2508 3SM -SN OVC020
     FM250800 33010KT 2SM -SHSN OVC015
     FM251500 34020G32KT 3SM -SHSN OVC020
     FM260200 33010G20KT P6SM -SHSN OVC030=

USA.gov is the U.S. government's official web portal to all federal, state and local government web resources and services.